Time;durP1;ratioP1;P1;durP2;ratioP2;P2;SDS_P1;SDS_P2;PMS_P1;PMS_P2;Temp;Humidity;BMP_temperature;BMP_pressure;BME280_temperature;BME280_humidity;BME280_pressure;Samples;Min_cycle;Max_cycle;Signal;HPM_P1;HPM_P2
2022/07/18 00:00:56;;;;;;;2.13;1.60;;;;;;;19.35;41.53;98826.56;5054414;28;20759;-70
2022/07/18 00:03:23;;;;;;;2.33;1.60;;;;;;;19.37;41.54;98827.94;5054678;28;20247;-70
2022/07/18 00:05:49;;;;;;;1.57;1.47;;;;;;;19.12;42.69;98829.53;5054376;28;20672;-70
2022/07/18 00:08:16;;;;;;;2.13;1.60;;;;;;;19.02;43.58;98837.53;5054282;28;20304;-70
2022/07/18 00:10:42;;;;;;;1.63;1.53;;;;;;;18.96;43.08;98835.88;5054623;28;20201;-70
2022/07/18 00:13:09;;;;;;;1.87;1.50;;;;;;;18.78;44.44;98825.41;5054265;28;20209;-70
2022/07/18 00:15:36;;;;;;;4.27;1.60;;;;;;;18.73;44.00;98825.38;5054575;28;20209;-70
2022/07/18 00:18:04;;;;;;;4.33;1.57;;;;;;;18.69;43.95;98829.63;5054411;28;20300;-70
2022/07/18 00:20:30;;;;;;;3.00;1.73;;;;;;;18.67;43.41;98826.34;5054459;28;20307;-70
2022/07/18 00:22:57;;;;;;;2.00;1.70;;;;;;;18.71;44.12;98831.00;5054099;28;20739;-70
2022/07/18 00:25:23;;;;;;;2.33;1.60;;;;;;;18.65;44.54;98833.88;5054352;28;20296;-70
2022/07/18 00:27:50;;;;;;;1.87;1.50;;;;;;;18.65;43.96;98840.09;5053986;28;20201;-70
2022/07/18 00:30:16;;;;;;;3.40;1.50;;;;;;;18.52;44.46;98832.41;5054229;28;20307;-70
2022/07/18 00:32:42;;;;;;;2.47;1.60;;;;;;;18.64;43.79;98827.69;5054211;28;20231;-70
2022/07/18 00:35:09;;;;;;;4.30;1.80;;;;;;;18.55;44.25;98831.88;5053889;28;20763;-70
2022/07/18 00:37:36;;;;;;;4.80;1.50;;;;;;;18.43;45.66;98833.06;5054148;28;20205;-70
2022/07/18 00:40:02;;;;;;;2.93;1.90;;;;;;;18.35;45.76;98828.94;5053590;28;20321;-70
2022/07/18 00:42:29;;;;;;;1.53;1.43;;;;;;;18.22;45.97;98829.28;5053994;28;20271;-70
2022/07/18 00:44:56;;;;;;;2.33;1.57;;;;;;;18.12;46.43;98833.69;5053691;28;20213;-68
2022/07/18 00:47:23;;;;;;;1.50;1.40;;;;;;;18.10;45.97;98833.16;5054057;28;20308;-68
2022/07/18 00:49:50;;;;;;;3.00;1.60;;;;;;;18.07;46.05;98823.69;5053819;28;20235;-67
2022/07/18 00:52:17;;;;;;;1.80;1.50;;;;;;;18.07;46.49;98818.31;5053888;28;20296;-67
2022/07/18 00:54:43;;;;;;;2.70;1.80;;;;;;;18.00;45.53;98830.31;5053803;28;20208;-70
2022/07/18 00:57:09;;;;;;;1.80;1.33;;;;;;;18.02;45.74;98831.69;5053887;28;20202;-70
2022/07/18 01:02:21;;;;;;;2.07;1.60;;;;;;;17.93;46.44;98827.78;5053614;28;20635;-70
2022/07/18 01:04:47;;;;;;;1.60;1.40;;;;;;;17.92;46.62;98830.72;5053756;28;20209;-70
2022/07/18 01:07:14;;;;;;;3.77;1.50;;;;;;;17.94;46.57;98829.41;5053320;28;20209;-70
2022/07/18 01:09:40;;;;;;;2.27;1.53;;;;;;;17.85;47.61;98825.53;5053547;28;20311;-70
2022/07/18 01:12:08;;;;;;;2.53;1.70;;;;;;;17.88;46.67;98829.59;5053476;28;20292;-70
2022/07/18 01:14:35;;;;;;;2.00;1.53;;;;;;;17.84;46.69;98829.28;5053611;28;20312;-70
2022/07/18 01:17:01;;;;;;;1.40;1.30;;;;;;;17.82;46.67;98823.31;5053299;28;20687;-70
2022/07/18 01:19:27;;;;;;;1.53;1.40;;;;;;;17.74;46.82;98831.78;5053371;28;20243;-70
2022/07/18 01:21:54;;;;;;;2.03;1.67;;;;;;;17.70;46.98;98825.28;5053447;28;20201;-70
2022/07/18 01:24:20;;;;;;;3.00;1.53;;;;;;;17.87;46.93;98820.69;5053142;28;20205;-70
2022/07/18 01:26:47;;;;;;;1.83;1.67;;;;;;;17.89;46.94;98821.28;5053210;28;20205;-70
2022/07/18 01:29:13;;;;;;;2.80;1.70;;;;;;;17.83;47.10;98822.25;5053159;28;20317;-70
2022/07/18 01:31:40;;;;;;;3.97;1.50;;;;;;;17.93;46.90;98827.78;5053379;28;20205;-70
2022/07/18 01:34:06;;;;;;;1.90;1.47;;;;;;;17.98;46.38;98822.47;5053645;28;20291;-70
2022/07/18 01:36:33;;;;;;;1.60;1.50;;;;;;;18.08;46.90;98822.63;5053284;28;20300;-70
2022/07/18 01:38:59;;;;;;;2.67;1.70;;;;;;;17.99;46.41;98826.78;5053280;28;20283;-70
2022/07/18 01:41:25;;;;;;;2.60;1.53;;;;;;;17.91;46.89;98821.84;5053228;28;20225;-70
2022/07/18 01:43:52;;;;;;;3.83;1.67;;;;;;;17.83;47.36;98830.31;5052925;28;20745;-70
2022/07/18 01:46:18;;;;;;;3.53;1.60;;;;;;;17.76;47.50;98835.06;5053264;28;20201;-70
2022/07/18 01:48:45;;;;;;;3.40;1.50;;;;;;;17.77;47.82;98827.78;5053235;28;20321;-69
2022/07/18 01:51:11;;;;;;;4.00;1.50;;;;;;;17.82;47.55;98822.50;5053202;28;20201;-70
2022/07/18 01:53:41;;;;;;;2.50;1.53;;;;;;;17.77;47.75;98817.03;5052869;28;20691;-70
2022/07/18 01:56:08;;;;;;;3.07;1.60;;;;;;;17.78;47.35;98819.47;5053225;28;20196;-70
2022/07/18 01:58:35;;;;;;;2.70;1.90;;;;;;;17.79;47.37;98815.75;5052900;28;20233;-70
2022/07/18 02:01:02;;;;;;;2.47;1.77;;;;;;;17.79;47.22;98821.13;5053101;28;20241;-70
2022/07/18 02:03:28;;;;;;;5.23;1.77;;;;;;;17.76;47.81;98827.00;5052789;28;20664;-70
2022/07/18 02:05:54;;;;;;;2.37;1.67;;;;;;;17.76;47.91;98827.00;5053047;28;20205;-70
2022/07/18 02:08:21;;;;;;;3.87;1.60;;;;;;;17.79;47.84;98826.50;5052966;28;20319;-70
2022/07/18 02:10:47;;;;;;;2.33;2.00;;;;;;;17.69;48.22;98820.97;5052984;28;20209;-70
2022/07/18 02:13:14;;;;;;;3.97;1.90;;;;;;;17.72;48.54;98828.53;5053022;28;20209;-70
2022/07/18 02:15:40;;;;;;;2.17;1.90;;;;;;;17.65;49.22;98827.09;5052990;28;20255;-70
2022/07/18 02:18:06;;;;;;;4.20;2.00;;;;;;;17.65;49.53;98832.47;5055200;28;20205;-70
2022/07/18 02:20:33;;;;;;;3.40;2.10;;;;;;;17.58;50.33;98829.94;5056366;28;20799;-70
2022/07/18 02:22:59;;;;;;;3.60;1.90;;;;;;;17.57;50.66;98830.19;5056960;28;20212;-70
2022/07/18 02:25:26;;;;;;;3.13;2.17;;;;;;;17.49;51.23;98827.88;5056323;28;20296;-70
2022/07/18 02:27:52;;;;;;;3.73;1.90;;;;;;;17.46;51.32;98837.25;5056346;28;20213;-70
2022/07/18 02:30:19;;;;;;;4.33;1.90;;;;;;;17.50;51.16;98830.34;5056508;28;20229;-70
2022/07/18 02:32:45;;;;;;;3.03;2.10;;;;;;;17.21;52.44;98835.97;5056564;28;20291;-70
2022/07/18 02:35:11;;;;;;;3.10;1.90;;;;;;;17.10;53.00;98839.56;5056139;28;20688;-70
2022/07/18 02:37:40;;;;;;;3.13;2.20;;;;;;;17.13;52.75;98837.19;5056931;28;20727;-70
2022/07/18 02:40:11;;;;;;;3.17;2.13;;;;;;;17.02;53.17;98837.25;5055774;28;20324;-70
2022/07/18 02:42:39;;;;;;;3.80;2.20;;;;;;;16.98;53.75;98836.94;5056011;28;20283;-70
2022/07/18 02:45:07;;;;;;;2.27;1.90;;;;;;;16.87;54.08;98832.41;5056272;28;20258;-70
2022/07/18 02:47:34;;;;;;;2.90;1.77;;;;;;;16.89;54.32;98838.38;5056228;28;20236;-70
2022/07/18 02:50:00;;;;;;;2.40;1.97;;;;;;;16.81;54.27;98836.06;5055842;28;20703;-69
2022/07/18 02:52:27;;;;;;;3.43;2.10;;;;;;;16.84;54.38;98832.06;5056169;28;20211;-70
2022/07/18 02:54:53;;;;;;;3.97;2.10;;;;;;;16.92;53.86;98839.75;5056893;28;20248;-70
2022/07/18 02:57:19;;;;;;;2.70;2.10;;;;;;;16.98;53.86;98836.09;5056585;28;20240;-70
2022/07/18 02:59:46;;;;;;;2.53;1.80;;;;;;;16.91;54.47;98836.25;5055578;28;20320;-70
2022/07/18 03:02:12;;;;;;;4.60;2.20;;;;;;;16.85;54.61;98836.38;5055963;28;20206;-70
2022/07/18 03:04:39;;;;;;;2.90;2.10;;;;;;;16.92;54.98;98832.50;5055805;28;20215;-70
2022/07/18 03:07:05;;;;;;;3.67;2.10;;;;;;;16.91;55.54;98838.09;5056014;28;20209;-70
2022/07/18 03:09:31;;;;;;;2.33;1.93;;;;;;;16.88;55.89;98836.72;5055732;28;20316;-70
2022/07/18 03:11:58;;;;;;;3.07;2.03;;;;;;;16.85;56.56;98836.38;5055423;28;20755;-70
2022/07/18 03:14:25;;;;;;;5.10;2.37;;;;;;;16.79;56.97;98835.47;5056460;28;20296;-70
2022/07/18 03:16:51;;;;;;;3.03;2.20;;;;;;;16.90;57.20;98836.47;5055878;28;20213;-70
2022/07/18 03:19:18;;;;;;;2.53;2.00;;;;;;;16.83;57.81;98838.50;5055445;28;20315;-70
2022/07/18 03:21:44;;;;;;;5.07;2.33;;;;;;;16.90;57.65;98837.31;5055443;28;20235;-70
2022/07/18 03:24:11;;;;;;;3.10;2.10;;;;;;;16.88;57.48;98838.59;5055421;28;20215;-70
2022/07/18 03:26:38;;;;;;;4.17;2.43;;;;;;;16.91;57.35;98835.41;5055764;28;20267;-70
2022/07/18 03:29:05;;;;;;;2.53;2.10;;;;;;;16.84;57.41;98837.44;5054663;28;20315;-70
2022/07/18 03:31:31;;;;;;;6.63;2.27;;;;;;;16.90;57.34;98842.69;5055337;28;20205;-70
2022/07/18 03:33:58;;;;;;;2.80;2.20;;;;;;;16.85;57.46;98839.06;5054951;28;20231;-70
2022/07/18 03:36:24;;;;;;;2.90;2.20;;;;;;;16.72;58.37;98832.13;5054775;28;20295;-70
2022/07/18 03:38:51;;;;;;;4.03;2.20;;;;;;;16.70;58.79;98834.22;5054652;28;20316;-70
2022/07/18 03:41:17;;;;;;;7.30;2.50;;;;;;;16.64;59.16;98843.22;5054796;28;20323;-69
2022/07/18 03:43:44;;;;;;;3.63;2.07;;;;;;;16.58;59.33;98838.00;5054748;28;20221;-70
2022/07/18 03:46:10;;;;;;;4.23;2.60;;;;;;;16.52;59.79;98833.59;5054711;28;20201;-70
2022/07/18 03:48:37;;;;;;;2.70;2.20;;;;;;;16.55;60.04;98841.97;5054542;28;20234;-70
2022/07/18 03:51:04;;;;;;;3.30;2.30;;;;;;;16.55;60.21;98833.94;5054836;28;20291;-70
2022/07/18 03:53:31;;;;;;;6.20;2.47;;;;;;;16.57;60.27;98833.69;5054856;28;20212;-70
2022/07/18 03:55:58;;;;;;;3.27;2.33;;;;;;;16.58;60.14;98846.88;5054472;28;20205;-70
2022/07/18 03:58:25;;;;;;;4.90;2.50;;;;;;;16.56;60.75;98840.13;5054345;28;20321;-70
2022/07/18 04:00:51;;;;;;;4.63;2.30;;;;;;;16.56;60.86;98832.88;5054174;28;20744;-70
2022/07/18 04:03:18;;;;;;;5.00;2.40;;;;;;;16.65;61.13;98831.44;5054530;28;20580;-69
2022/07/18 04:05:45;;;;;;;6.70;2.40;;;;;;;16.53;61.12;98830.69;5053741;28;20671;-70
2022/07/18 04:08:12;;;;;;;4.27;2.60;;;;;;;16.53;61.62;98833.38;5055000;28;20529;-70
2022/07/18 04:10:39;;;;;;;4.03;2.20;;;;;;;16.60;61.50;98831.34;5054492;28;20652;-70
2022/07/18 04:13:07;;;;;;;5.57;2.30;;;;;;;16.58;61.30;98833.47;5054050;28;20602;-70
2022/07/18 04:15:35;;;;;;;4.73;2.37;;;;;;;16.58;61.41;98832.63;5054237;28;20579;-70
2022/07/18 04:18:01;;;;;;;4.73;2.50;;;;;;;16.64;61.78;98834.38;5053951;28;20205;-70
2022/07/18 04:20:28;;;;;;;3.77;2.60;;;;;;;16.71;60.97;98827.81;5054145;28;20232;-70
2022/07/18 04:22:59;;;;;;;2.37;2.13;;;;;;;16.79;60.66;98832.78;5054133;28;20580;-70
2022/07/18 04:25:28;;;;;;;3.10;2.27;;;;;;;16.87;60.67;98834.28;5053812;28;20579;-70
2022/07/18 04:27:56;;;;;;;4.17;2.53;;;;;;;16.88;61.06;98835.91;5053949;28;20229;-70
2022/07/18 04:30:25;;;;;;;5.17;2.83;;;;;;;16.90;60.72;98840.00;5054149;28;20308;-70
2022/07/18 04:32:52;;;;;;;5.67;2.30;;;;;;;16.95;60.66;98831.19;5054137;28;20217;-70
2022/07/18 04:35:18;;;;;;;7.10;2.60;;;;;;;17.02;60.42;98830.03;5053928;28;20216;-70
2022/07/18 04:37:45;;;;;;;4.40;2.87;;;;;;;17.08;60.50;98826.38;5053511;28;20647;-70
2022/07/18 04:40:12;;;;;;;4.53;2.37;;;;;;;17.11;60.51;98830.44;5053104;28;20316;-70
2022/07/18 04:42:39;;;;;;;3.27;2.80;;;;;;;17.20;58.97;98835.16;5053046;28;20207;-70
2022/07/18 04:45:07;;;;;;;4.77;2.70;;;;;;;17.22;58.62;98830.38;5053434;28;20296;-70
2022/07/18 04:47:33;;;;;;;3.07;2.70;;;;;;;17.22;58.67;98827.69;5053835;28;20211;-70
2022/07/18 04:49:59;;;;;;;3.03;2.70;;;;;;;17.28;58.49;98820.53;5053566;28;20229;-70
2022/07/18 04:52:26;;;;;;;4.97;3.00;;;;;;;17.30;58.54;98829.97;5053481;28;20293;-70
2022/07/18 04:54:52;;;;;;;4.77;2.90;;;;;;;17.32;58.68;98827.06;5053645;28;20221;-69
2022/07/18 04:57:19;;;;;;;6.10;3.23;;;;;;;17.41;58.54;98833.69;5053234;28;20665;-69
2022/07/18 04:59:46;;;;;;;7.27;3.47;;;;;;;17.39;58.23;98839.31;5052494;28;20687;-69
2022/07/18 05:02:13;;;;;;;6.77;3.00;;;;;;;17.28;58.50;98848.22;5052372;28;20778;-70
2022/07/18 05:04:40;;;;;;;6.90;3.33;;;;;;;17.40;57.88;98840.94;5052477;28;20295;-69
2022/07/18 05:07:07;;;;;;;7.67;3.60;;;;;;;17.50;57.67;98834.91;5053024;28;20201;-70
2022/07/18 05:09:34;;;;;;;4.20;3.13;;;;;;;17.82;56.75;98836.75;5052721;28;20726;-69
2022/07/18 05:12:01;;;;;;;5.60;3.03;;;;;;;18.53;54.77;98823.25;5053058;28;20208;-70
2022/07/18 05:14:27;;;;;;;6.73;2.97;;;;;;;19.49;51.91;98823.19;5052806;28;20202;-70
2022/07/18 05:16:54;;;;;;;4.00;2.70;;;;;;;19.41;51.26;98823.66;5052888;28;20292;-69
2022/07/18 05:19:20;;;;;;;5.53;2.80;;;;;;;19.32;51.74;98822.50;5052800;28;20741;-70
2022/07/18 05:21:46;;;;;;;4.13;2.80;;;;;;;19.25;51.69;98823.78;5052956;28;20228;-70
2022/07/18 05:24:13;;;;;;;4.27;2.40;;;;;;;19.16;51.81;98819.88;5052247;28;20720;-70
2022/07/18 05:26:40;;;;;;;3.60;2.47;;;;;;;19.16;51.60;98822.56;5052420;28;20216;-69
2022/07/18 05:29:06;;;;;;;3.37;2.03;;;;;;;19.33;50.76;98823.31;5052912;28;20320;-69
2022/07/18 05:31:32;;;;;;;4.23;2.40;;;;;;;19.60;50.67;98821.38;5053029;28;20284;-70
2022/07/18 05:33:59;;;;;;;3.07;2.53;;;;;;;19.51;51.02;98826.44;5052702;28;20209;-70
2022/07/18 05:36:25;;;;;;;4.63;2.47;;;;;;;19.32;51.44;98830.56;5052161;28;20209;-70
2022/07/18 05:38:52;;;;;;;4.80;2.60;;;;;;;19.23;52.01;98826.72;5052341;28;20221;-70
2022/07/18 05:41:18;;;;;;;3.47;2.73;;;;;;;19.32;52.18;98827.88;5052063;28;20221;-69
2022/07/18 05:43:45;;;;;;;3.73;2.63;;;;;;;19.12;52.09;98835.75;5052271;28;20385;-69
2022/07/18 05:46:11;;;;;;;4.93;2.70;;;;;;;19.23;52.51;98826.72;5052393;28;20205;-70
2022/07/18 05:48:37;;;;;;;6.40;2.47;;;;;;;19.32;52.42;98830.56;5052243;28;20724;-70
2022/07/18 05:51:04;;;;;;;5.67;2.60;;;;;;;19.31;52.27;98823.56;5052233;28;20300;-69
2022/07/18 05:53:30;;;;;;;4.30;2.50;;;;;;;19.43;51.54;98831.50;5054906;28;20212;-70
2022/07/18 05:55:57;;;;;;;5.03;2.13;;;;;;;19.37;51.28;98827.13;5056231;28;20700;-69
2022/07/18 05:58:23;;;;;;;3.77;2.70;;;;;;;19.40;52.00;98830.13;5055784;28;20358;-69
2022/07/18 06:00:49;;;;;;;3.77;2.50;;;;;;;19.91;50.71;98836.72;5056376;28;20304;-69
2022/07/18 06:03:16;;;;;;;3.63;2.50;;;;;;;19.63;50.75;98830.84;5055998;28;20296;-69
2022/07/18 06:05:43;;;;;;;5.10;3.20;;;;;;;19.48;50.52;98839.63;5056111;28;20212;-69
2022/07/18 06:08:09;;;;;;;5.93;2.83;;;;;;;19.48;51.11;98828.03;5056064;28;20697;-69
2022/07/18 06:10:36;;;;;;;6.83;2.83;;;;;;;19.42;51.20;98833.38;5056372;28;20236;-70
2022/07/18 06:13:03;;;;;;;7.07;2.80;;;;;;;19.63;51.15;98828.97;5055859;28;20755;-69
2022/07/18 06:15:29;;;;;;;3.60;2.83;;;;;;;19.77;50.93;98832.84;5056321;28;20201;-70
2022/07/18 06:17:56;;;;;;;6.03;3.23;;;;;;;19.94;50.76;98838.09;5055801;28;20209;-69
2022/07/18 06:20:22;;;;;;;4.13;3.00;;;;;;;19.75;50.75;98834.19;5056256;28;20221;-69
2022/07/18 06:22:49;;;;;;;3.40;3.10;;;;;;;19.65;51.11;98832.22;5056302;28;20229;-70
2022/07/18 06:25:15;;;;;;;5.50;3.20;;;;;;;19.80;50.63;98839.63;5056065;28;20382;-69
2022/07/18 06:27:42;;;;;;;6.23;3.00;;;;;;;19.94;50.41;98835.41;5056223;28;20209;-70
2022/07/18 06:30:09;;;;;;;6.17;3.20;;;;;;;20.10;50.63;98827.16;5055968;28;20312;-70
2022/07/18 06:32:37;;;;;;;5.60;3.03;;;;;;;20.27;50.02;98835.09;5055877;28;20672;-70
2022/07/18 06:35:04;;;;;;;5.50;3.37;;;;;;;20.17;49.51;98829.63;5055835;28;20292;-70
2022/07/18 06:37:30;;;;;;;4.27;2.63;;;;;;;20.24;50.15;98836.41;5055517;28;20739;-70
2022/07/18 06:39:56;;;;;;;7.40;2.87;;;;;;;20.41;49.54;98833.53;5055548;28;20231;-70
2022/07/18 06:42:23;;;;;;;5.63;3.00;;;;;;;20.62;49.29;98835.25;5055424;28;20228;-70
2022/07/18 06:44:49;;;;;;;9.13;3.80;;;;;;;20.76;48.87;98830.97;5055584;28;20296;-70
2022/07/18 06:47:16;;;;;;;6.00;3.03;;;;;;;20.70;49.20;98821.25;5055537;28;20672;-70
2022/07/18 06:49:42;;;;;;;5.67;2.97;;;;;;;20.75;49.48;98827.47;5055532;28;20315;-70
2022/07/18 06:52:11;;;;;;;7.77;3.07;;;;;;;20.67;48.00;98827.16;5055401;28;20604;-70
2022/07/18 06:54:40;;;;;;;5.10;3.00;;;;;;;20.78;48.85;98823.41;5055252;28;20686;-70
2022/07/18 06:57:09;;;;;;;6.63;3.00;;;;;;;20.81;48.77;98828.28;5055969;28;20216;-70
2022/07/18 06:59:36;;;;;;;8.30;3.10;;;;;;;20.89;48.34;98816.97;5055217;28;20237;-70
2022/07/18 07:02:03;;;;;;;4.07;2.80;;;;;;;21.17;48.41;98824.63;5055291;28;20225;-70
2022/07/18 07:04:29;;;;;;;3.70;2.83;;;;;;;21.30;48.39;98824.09;5054047;28;20675;-70
2022/07/18 07:06:56;;;;;;;5.60;3.10;;;;;;;21.30;47.90;98824.91;5055368;28;20221;-70
2022/07/18 07:09:22;;;;;;;5.63;2.60;;;;;;;21.55;47.89;98826.81;5055589;28;20225;-70
2022/07/18 07:11:48;;;;;;;4.20;2.90;;;;;;;21.39;47.32;98825.19;5055710;28;20205;-70
2022/07/18 07:14:15;;;;;;;6.00;2.67;;;;;;;21.36;47.99;98820.31;5055266;28;20296;-70
2022/07/18 07:16:41;;;;;;;7.53;3.00;;;;;;;21.64;47.95;98819.78;5054985;28;20296;-70
2022/07/18 07:19:08;;;;;;;8.03;3.00;;;;;;;21.77;47.59;98811.97;5055056;28;20225;-70
2022/07/18 07:21:34;;;;;;;4.43;3.00;;;;;;;21.84;47.11;98814.41;5054908;28;20228;-70
2022/07/18 07:24:00;;;;;;;4.73;2.50;;;;;;;21.99;46.86;98814.38;5055925;28;20553;-70
2022/07/18 07:26:27;;;;;;;12.20;3.50;;;;;;;22.00;47.21;98810.56;5055209;28;20202;-70
2022/07/18 07:28:53;;;;;;;4.63;2.53;;;;;;;22.17;46.67;98802.94;5054532;28;20244;-71
2022/07/18 07:31:19;;;;;;;5.93;2.73;;;;;;;22.17;46.51;98806.47;5054841;28;20205;-71
2022/07/18 07:33:46;;;;;;;5.07;2.30;;;;;;;22.48;46.18;98799.09;5054590;28;20209;-70
2022/07/18 07:36:12;;;;;;;6.30;2.90;;;;;;;22.65;45.47;98800.34;5054860;28;20228;-70
2022/07/18 07:38:39;;;;;;;6.53;2.63;;;;;;;22.80;45.93;98802.97;5054604;28;20229;-70
2022/07/18 07:41:06;;;;;;;8.32;3.10;;;;;;;22.79;45.08;98803.28;5054325;28;20205;-71
2022/07/18 07:43:36;;;;;;;8.68;3.00;;;;;;;22.99;45.14;98811.28;5054784;28;20237;-71
2022/07/18 07:46:02;;;;;;;9.43;2.83;;;;;;;23.16;44.40;98811.72;5054736;28;20309;-70
2022/07/18 07:48:29;;;;;;;5.70;2.95;;;;;;;23.16;43.78;98806.31;5054672;28;20229;-70
2022/07/18 07:50:55;;;;;;;8.57;3.10;;;;;;;23.32;43.57;98803.22;5054238;28;20305;-70
2022/07/18 07:53:22;;;;;;;50.33;8.95;;;;;;;23.56;44.39;98801.41;5053986;28;20255;-71
2022/07/18 07:55:48;;;;;;;5.68;3.08;;;;;;;23.50;42.99;98804.44;5054342;28;20594;-70
2022/07/18 07:58:15;;;;;;;9.23;3.00;;;;;;;23.82;43.21;98801.97;5054226;28;20299;-70
2022/07/18 08:00:41;;;;;;;5.03;2.20;;;;;;;23.71;41.17;98805.91;5054634;28;20190;-70
2022/07/18 08:03:10;;;;;;;7.80;2.88;;;;;;;23.77;41.36;98796.59;5054356;28;20221;-71
2022/07/18 08:05:39;;;;;;;5.95;2.58;;;;;;;23.70;41.41;98790.72;5054351;28;20205;-70
2022/07/18 08:08:07;;;;;;;3.67;2.38;;;;;;;24.08;41.01;98787.91;5054440;28;20216;-71
2022/07/18 08:10:34;;;;;;;4.57;2.45;;;;;;;24.18;40.46;98789.69;5054542;28;20308;-70
2022/07/18 08:13:00;;;;;;;3.55;2.30;;;;;;;24.16;40.24;98789.97;5054369;28;20284;-70
2022/07/18 08:15:27;;;;;;;3.53;2.45;;;;;;;24.11;39.75;98792.75;5054120;28;20212;-70
2022/07/18 08:17:54;;;;;;;2.75;2.42;;;;;;;24.18;39.24;98789.69;5054220;28;20315;-71
2022/07/18 08:20:21;;;;;;;6.45;3.03;;;;;;;24.05;39.50;98785.75;5054153;28;20229;-71
2022/07/18 08:22:59;;;;;;;7.55;2.70;;;;;;;24.26;39.53;98789.06;5054077;28;20510;-70
2022/07/18 08:25:27;;;;;;;6.63;3.10;;;;;;;24.64;37.60;98786.16;5054011;28;20283;-71
2022/07/18 08:27:54;;;;;;;6.43;2.60;;;;;;;24.71;38.14;98791.25;5053883;28;20295;-70
2022/07/18 08:30:21;;;;;;;5.88;2.38;;;;;;;24.80;37.70;98778.63;5054532;28;20236;-71
2022/07/18 08:32:47;;;;;;;4.25;2.50;;;;;;;24.79;37.04;98780.53;5053671;28;20297;-71
2022/07/18 08:35:14;;;;;;;5.32;2.17;;;;;;;25.02;35.89;98789.75;5053712;28;20206;-70
2022/07/18 08:37:40;;;;;;;4.28;2.13;;;;;;;24.76;36.45;98781.13;5053090;28;20209;-70
2022/07/18 08:40:07;;;;;;;6.38;2.10;;;;;;;25.06;36.47;98791.56;5053188;28;20231;-71
2022/07/18 08:42:35;;;;;;;3.33;2.45;;;;;;;25.35;35.25;98794.16;5053525;28;20235;-70
2022/07/18 08:45:03;;;;;;;4.70;2.30;;;;;;;25.40;35.02;98786.72;5053645;28;20209;-70
2022/07/18 08:47:31;;;;;;;3.35;2.20;;;;;;;25.56;33.78;98793.53;5053186;28;20296;-70
2022/07/18 08:49:58;;;;;;;4.30;2.20;;;;;;;25.58;33.83;98782.34;5053527;28;20225;-71
2022/07/18 08:52:27;;;;;;;2.90;1.95;;;;;;;25.74;33.20;98783.72;5053935;28;20205;-71
2022/07/18 08:54:53;;;;;;;3.45;2.10;;;;;;;25.86;32.35;98789.47;5053357;28;20296;-70
2022/07/18 08:57:19;;;;;;;3.92;1.90;;;;;;;25.97;32.83;98785.50;5053077;28;20205;-71
2022/07/18 08:59:46;;;;;;;4.22;1.90;;;;;;;25.71;32.02;98796.00;5052781;28;20323;-71
2022/07/18 09:02:12;;;;;;;5.35;2.08;;;;;;;26.06;31.41;98789.16;5053171;28;20231;-71
2022/07/18 09:04:44;;;;;;;3.65;1.90;;;;;;;25.99;32.29;98797.72;5053173;28;20208;-70
2022/07/18 09:07:23;;;;;;;4.95;2.00;;;;;;;26.42;29.47;98795.53;5053600;28;20205;-71
2022/07/18 09:09:55;;;;;;;2.10;1.90;;;;;;;26.19;30.37;98797.31;5053254;28;20335;-70
2022/07/18 09:12:21;;;;;;;5.03;2.15;;;;;;;26.00;31.21;98793.06;5053285;28;20208;-70
2022/07/18 09:14:49;;;;;;;5.93;2.38;;;;;;;26.48;30.84;98794.31;5052510;28;20212;-71
2022/07/18 09:17:25;;;;;;;4.22;2.00;;;;;;;26.83;30.09;98796.31;5052911;28;20577;-70
2022/07/18 09:20:01;;;;;;;4.40;2.28;;;;;;;26.78;29.78;98791.78;5052989;28;20220;-71
2022/07/18 09:22:31;;;;;;;5.25;1.70;;;;;;;26.69;28.77;98792.81;5053365;28;20224;-71
2022/07/18 09:24:59;;;;;;;3.28;2.08;;;;;;;26.89;28.66;98789.63;5052788;28;20205;-71
2022/07/18 09:27:47;;;;;;;2.58;1.73;;;;;;;27.01;28.36;98785.25;5052485;28;20209;-71
2022/07/18 09:30:28;;;;;;;2.30;1.90;;;;;;;26.86;28.27;98782.88;5053200;28;20229;-71
2022/07/18 09:33:03;;;;;;;3.85;1.65;;;;;;;27.33;28.04;98783.47;5052888;28;20631;-70
2022/07/18 09:35:33;;;;;;;2.50;1.50;;;;;;;27.47;26.59;98784.19;5053082;28;20208;-71
2022/07/18 09:38:11;;;;;;;2.72;1.73;;;;;;;27.67;27.30;98778.25;5053377;28;20208;-71
2022/07/18 09:40:44;;;;;;;3.67;1.80;;;;;;;27.84;25.08;98778.34;5052975;28;20297;-70
2022/07/18 09:43:16;;;;;;;4.00;1.60;;;;;;;27.52;25.90;98778.59;5052813;28;20209;-70
2022/07/18 09:45:46;;;;;;;4.78;1.70;;;;;;;27.74;26.37;98779.41;5052666;28;20200;-71
2022/07/18 09:48:15;;;;;;;2.47;1.58;;;;;;;28.26;26.40;98778.56;5052725;28;20205;-71
2022/07/18 09:51:05;;;;;;;3.92;1.60;;;;;;;28.61;25.23;98768.56;5052919;28;20205;-71
2022/07/18 09:53:38;;;;;;;2.15;1.70;;;;;;;28.73;24.83;98768.75;5052813;28;20205;-71
2022/07/18 09:56:07;;;;;;;3.00;1.73;;;;;;;28.78;25.73;98769.44;5052743;28;20193;-71
2022/07/18 09:58:51;;;;;;;3.50;1.65;;;;;;;28.85;25.46;98769.75;5052372;28;20255;-71
2022/07/18 10:01:18;;;;;;;2.03;1.60;;;;;;;28.84;25.65;98757.19;5052504;28;20205;-71
2022/07/18 10:03:44;;;;;;;3.42;1.80;;;;;;;29.30;24.97;98765.59;5052771;28;20231;-71
2022/07/18 10:06:11;;;;;;;6.28;1.73;;;;;;;29.26;24.92;98761.13;5052920;28;20217;-71
2022/07/18 10:08:38;;;;;;;2.70;1.77;;;;;;;29.41;24.83;98766.91;5052592;28;20225;-70
2022/07/18 10:11:06;;;;;;;3.28;1.85;;;;;;;29.24;24.49;98763.34;5052738;28;20312;-70
2022/07/18 10:13:36;;;;;;;2.20;1.75;;;;;;;29.23;23.84;98762.56;5052275;28;20280;-70
2022/07/18 10:16:03;;;;;;;1.95;1.70;;;;;;;28.83;23.67;98758.31;5052232;28;20739;-70
2022/07/18 10:18:32;;;;;;;1.98;1.77;;;;;;;29.18;23.59;98759.19;5052563;28;20225;-70
2022/07/18 10:21:20;;;;;;;2.00;1.60;;;;;;;29.34;24.28;98761.09;5052625;28;20209;-70
2022/07/18 10:23:52;;;;;;;3.25;1.95;;;;;;;29.62;23.74;98759.63;5052431;28;20256;-71
2022/07/18 10:26:19;;;;;;;1.75;1.60;;;;;;;29.19;23.15;98758.84;5051920;28;20201;-71
2022/07/18 10:28:59;;;;;;;1.90;1.80;;;;;;;29.22;23.19;98766.44;5051914;28;20240;-70
2022/07/18 10:31:32;;;;;;;2.60;1.80;;;;;;;29.19;22.96;98758.84;5052208;28;20209;-72
2022/07/18 10:34:07;;;;;;;1.80;1.70;;;;;;;29.37;22.08;98762.38;5052272;28;20268;-70
2022/07/18 10:36:36;;;;;;;2.10;1.50;;;;;;;29.46;20.87;98763.19;5052439;28;20288;-70
2022/07/18 10:39:07;;;;;;;2.85;1.77;;;;;;;29.67;21.24;98764.94;5054374;28;20317;-71
2022/07/18 10:41:40;;;;;;;1.67;1.58;;;;;;;29.63;23.57;98761.25;5055915;28;20287;-70
2022/07/18 10:44:21;;;;;;;3.92;1.60;;;;;;;29.62;22.67;98756.09;5056534;28;20280;-70
2022/07/18 10:47:09;;;;;;;2.33;1.63;;;;;;;29.33;22.90;98748.53;5055670;28;20205;-70
2022/07/18 10:49:48;;;;;;;3.85;1.63;;;;;;;29.47;23.16;98753.81;5056063;28;20222;-71
2022/07/18 10:52:26;;;;;;;2.85;1.80;;;;;;;29.01;22.99;98754.50;5055558;28;20232;-71
2022/07/18 10:55:02;;;;;;;1.60;1.50;;;;;;;29.59;22.29;98751.25;5055537;28;20292;-70
2022/07/18 10:57:31;;;;;;;1.50;1.40;;;;;;;29.73;22.84;98746.41;5055660;28;20208;-71
2022/07/18 11:00:09;;;;;;;2.58;1.83;;;;;;;29.80;21.22;98747.50;5055079;28;20612;-70
2022/07/18 11:02:47;;;;;;;1.70;1.60;;;;;;;29.72;21.28;98748.34;5055135;28;20414;-71
2022/07/18 11:05:26;;;;;;;1.77;1.30;;;;;;;29.89;21.79;98742.78;5055509;28;20559;-70
2022/07/18 11:07:58;;;;;;;2.97;1.63;;;;;;;30.07;21.20;98741.59;5055337;28;20363;-71
2022/07/18 11:10:44;;;;;;;1.98;1.75;;;;;;;30.05;21.97;98741.13;5056218;28;20209;-71
2022/07/18 11:13:25;;;;;;;1.98;1.55;;;;;;;30.49;21.31;98731.59;5055560;28;20201;-71
2022/07/18 11:16:14;;;;;;;1.60;1.50;;;;;;;30.53;21.76;98738.03;5055450;28;20301;-70
2022/07/18 11:18:40;;;;;;;2.40;1.40;;;;;;;30.66;21.43;98731.47;5055707;28;20316;-71
2022/07/18 11:21:18;;;;;;;1.50;1.40;;;;;;;30.52;20.58;98734.47;5055248;28;20304;-70
2022/07/18 11:23:48;;;;;;;2.92;1.60;;;;;;;30.63;21.62;98721.16;5055194;28;20316;-71
2022/07/18 11:26:16;;;;;;;1.65;1.55;;;;;;;30.65;22.49;98725.19;5055090;28;20209;-71
2022/07/18 11:28:43;;;;;;;1.80;1.70;;;;;;;30.49;21.12;98724.16;5055018;28;20235;-71
2022/07/18 11:31:12;;;;;;;3.22;1.80;;;;;;;30.15;22.12;98721.59;5054640;28;20208;-70
2022/07/18 11:33:48;;;;;;;2.90;1.63;;;;;;;29.98;21.94;98712.63;5055375;28;20205;-71
2022/07/18 11:36:17;;;;;;;2.13;1.70;;;;;;;30.22;22.21;98716.41;5054913;28;20207;-70
2022/07/18 11:38:52;;;;;;;1.67;1.52;;;;;;;30.27;20.67;98716.22;5054748;28;20279;-71
2022/07/18 11:41:20;;;;;;;1.52;1.38;;;;;;;30.01;20.65;98699.03;5054887;28;20197;-71